createdAt,value
2018-01-20T00:00:01.635Z,12.40
2018-01-20T00:00:25.450Z,11.90
2018-01-20T00:00:49.458Z,9.95
2018-01-20T00:01:13.450Z,12.52
2018-01-20T00:01:37.631Z,12.77
2018-01-20T00:02:01.499Z,11.60
2018-01-20T00:02:25.247Z,9.90
2018-01-20T00:02:48.700Z,12.05
2018-01-20T00:03:12.437Z,12.50
2018-01-20T00:03:36.176Z,11.43
2018-01-20T00:04:00.223Z,11.73
2018-01-20T00:04:23.875Z,14.25
2018-01-20T00:04:47.680Z,13.07
2018-01-20T00:05:11.467Z,10.18
2018-01-20T00:05:35.258Z,9.93
2018-01-20T00:05:59.035Z,11.05
2018-01-20T00:06:23.049Z,12.07
2018-01-20T00:06:46.801Z,13.62
2018-01-20T00:07:10.563Z,12.35
2018-01-20T00:07:34.392Z,9.55
2018-01-20T00:07:58.111Z,7.12
2018-01-20T00:08:21.849Z,8.50
2018-01-20T00:08:45.685Z,8.88
2018-01-20T00:09:08.428Z,8.65
2018-01-20T00:09:43.479Z,9.35
2018-01-20T00:10:15.113Z,11.05
2018-01-20T00:10:49.959Z,9.03
2018-01-20T00:11:24.756Z,10.20
2018-01-20T00:12:03.457Z,15.13
2018-01-20T00:12:27.035Z,13.50
2018-01-20T00:12:50.821Z,10.23
2018-01-20T00:13:14.569Z,10.90
2018-01-20T00:13:38.315Z,11.27
2018-01-20T00:14:02.326Z,10.45
2018-01-20T00:14:26.336Z,14.68
2018-01-20T00:14:50.361Z,15.85
2018-01-20T00:15:14.102Z,15.80
2018-01-20T00:15:37.917Z,11.02
2018-01-20T00:16:01.371Z,12.82
2018-01-20T00:16:25.139Z,13.05
2018-01-20T00:16:49.155Z,14.32
2018-01-20T00:17:17.012Z,15.20
2018-01-20T00:17:40.457Z,15.80
2018-01-20T00:18:04.194Z,14.82
2018-01-20T00:18:27.937Z,19.10
2018-01-20T00:18:51.958Z,22.05
2018-01-20T00:19:15.956Z,14.87
2018-01-20T00:19:40.162Z,11.00
2018-01-20T00:20:03.520Z,9.15
2018-01-20T00:20:27.240Z,9.65
2018-01-20T00:20:51.053Z,11.23
2018-01-20T00:21:14.786Z,12.68
2018-01-20T00:21:38.981Z,12.95
2018-01-20T00:22:02.931Z,10.80
2018-01-20T00:22:26.183Z,8.75
2018-01-20T00:22:49.902Z,9.73
2018-01-20T00:23:13.700Z,10.25
2018-01-20T00:23:37.774Z,12.15
2018-01-20T00:24:01.511Z,12.20
2018-01-20T00:24:24.767Z,14.32
2018-01-20T00:24:53.985Z,13.90
2018-01-20T00:25:17.591Z,15.45
2018-01-20T00:25:41.131Z,13.70
2018-01-20T00:26:10.299Z,10.25
2018-01-20T00:26:39.204Z,11.10
2018-01-20T00:27:02.783Z,11.03
2018-01-20T00:27:26.368Z,13.80
2018-01-20T00:27:50.395Z,18.20
2018-01-20T00:28:14.310Z,14.07
2018-01-20T00:28:38.323Z,11.30
2018-01-20T00:29:02.067Z,9.02
2018-01-20T00:29:25.601Z,10.30
2018-01-20T00:29:49.376Z,9.93
2018-01-20T00:30:13.196Z,9.85
2018-01-20T00:30:37.039Z,9.82
2018-01-20T00:31:01.085Z,9.80
2018-01-20T00:31:25.131Z,8.98
2018-01-20T00:31:48.887Z,12.35
2018-01-20T00:32:12.328Z,11.50
2018-01-20T00:32:36.073Z,9.32
2018-01-20T00:32:59.837Z,9.57
2018-01-20T00:33:23.269Z,13.23
2018-01-20T00:33:47.192Z,14.65
2018-01-20T00:34:10.932Z,14.30
2018-01-20T00:34:34.718Z,11.70
2018-01-20T00:34:58.764Z,10.43
2018-01-20T00:35:22.791Z,11.15
2018-01-20T00:35:46.236Z,9.43
2018-01-20T00:36:09.958Z,8.45
2018-01-20T00:36:33.754Z,10.80
2018-01-20T00:36:57.516Z,12.82
2018-01-20T00:37:20.951Z,13.62
2018-01-20T00:37:44.680Z,11.80
2018-01-20T00:38:08.442Z,8.88
2018-01-20T00:38:32.455Z,7.40
2018-01-20T00:38:56.507Z,6.53
2018-01-20T00:39:20.592Z,6.95
2018-01-20T00:39:44.342Z,7.40
2018-01-20T00:40:07.794Z,8.05
2018-01-20T00:40:31.516Z,7.80
2018-01-20T00:40:55.244Z,7.87
2018-01-20T00:41:19.251Z,6.60
2018-01-20T00:41:43.275Z,5.80
2018-01-20T00:42:07.311Z,8.20
2018-01-20T00:42:31.284Z,9.38
2018-01-20T00:42:55.188Z,9.43
2018-01-20T00:43:19.207Z,11.38
2018-01-20T00:43:42.936Z,10.23
2018-01-20T00:44:06.666Z,8.30
2018-01-20T00:44:30.423Z,10.40
2018-01-20T00:44:54.160Z,13.18
2018-01-20T00:45:18.065Z,13.40
2018-01-20T00:45:41.959Z,10.65
2018-01-20T00:46:05.881Z,7.55
2018-01-20T00:46:29.908Z,8.52
2018-01-20T00:46:53.936Z,10.10
2018-01-20T00:47:17.746Z,10.95
2018-01-20T00:47:41.184Z,9.57
2018-01-20T00:48:04.919Z,10.00
2018-01-20T00:48:28.648Z,10.27
2018-01-20T00:48:52.107Z,9.77
2018-01-20T00:49:15.851Z,10.30
2018-01-20T00:49:39.674Z,11.02
2018-01-20T00:50:03.693Z,12.15
2018-01-20T00:50:27.153Z,9.93
2018-01-20T00:50:50.886Z,7.90
2018-01-20T00:51:14.637Z,8.05
2018-01-20T00:51:38.371Z,6.45
2018-01-20T00:52:02.222Z,7.93
2018-01-20T00:52:25.699Z,9.48
2018-01-20T00:52:49.435Z,10.20
2018-01-20T00:53:13.458Z,9.00
2018-01-20T00:53:37.477Z,10.10
2018-01-20T00:54:01.227Z,10.18
2018-01-20T00:54:25.237Z,9.68
2018-01-20T00:54:48.695Z,9.73
2018-01-20T00:55:12.426Z,10.70
2018-01-20T00:55:36.174Z,11.35
2018-01-20T00:55:59.621Z,9.63
2018-01-20T00:56:23.435Z,11.90
2018-01-20T00:56:47.191Z,12.95
2018-01-20T00:57:11.273Z,11.70
2018-01-20T00:57:35.003Z,9.50
2018-01-20T00:57:59.028Z,9.63
2018-01-20T00:58:23.091Z,11.45
2018-01-20T00:58:47.110Z,9.38
2018-01-20T00:59:10.842Z,8.27
2018-01-20T00:59:34.619Z,8.75
2018-01-20T00:59:58.377Z,8.73
2018-01-20T01:00:22.116Z,7.05
2018-01-20T01:00:45.904Z,6.43
2018-01-20T01:01:09.939Z,6.97
2018-01-20T01:01:33.375Z,7.97
2018-01-20T01:01:57.164Z,8.48
2018-01-20T01:02:21.015Z,7.85
2018-01-20T01:02:44.827Z,7.45
2018-01-20T01:03:08.851Z,7.95
2018-01-20T01:03:32.583Z,9.10
2018-01-20T01:03:56.335Z,11.85
2018-01-20T01:04:19.743Z,11.27
2018-01-20T01:04:43.514Z,9.85
2018-01-20T01:05:07.242Z,7.60
2018-01-20T01:05:30.999Z,7.50
2018-01-20T01:05:54.771Z,7.05
2018-01-20T01:06:18.538Z,7.28
2018-01-20T01:06:42.557Z,7.68
2018-01-20T01:07:06.591Z,8.00
2018-01-20T01:07:30.374Z,9.13
2018-01-20T01:07:53.835Z,8.50
2018-01-20T01:08:17.599Z,6.87
2018-01-20T01:08:41.351Z,6.47
2018-01-20T01:09:04.679Z,8.05
2018-01-20T01:09:28.432Z,8.35
2018-01-20T01:09:52.189Z,10.02
2018-01-20T01:10:15.683Z,11.55
2018-01-20T01:10:39.426Z,9.90
2018-01-20T01:11:03.189Z,6.82
2018-01-20T01:11:27.214Z,6.68
2018-01-20T01:11:51.255Z,6.55
2018-01-20T01:12:14.986Z,6.18
2018-01-20T01:12:38.728Z,7.68
2018-01-20T01:13:02.466Z,7.32
2018-01-20T01:13:26.208Z,8.85
2018-01-20T01:13:49.952Z,11.80
2018-01-20T01:14:13.411Z,11.75
2018-01-20T01:14:37.168Z,10.02
2018-01-20T01:15:00.940Z,9.32
2018-01-20T01:15:24.955Z,9.52
2018-01-20T01:15:48.967Z,9.10
2018-01-20T01:16:12.719Z,10.25
2018-01-20T01:16:36.539Z,9.48
2018-01-20T01:16:59.971Z,15.63
2018-01-20T01:17:23.727Z,16.92
2018-01-20T01:17:47.773Z,15.88
2018-01-20T01:18:11.784Z,10.10
2018-01-20T01:18:35.649Z,11.12
2018-01-20T01:18:59.656Z,12.65
2018-01-20T01:19:23.672Z,10.77
2018-01-20T01:19:47.711Z,12.70
2018-01-20T01:20:11.443Z,15.25
2018-01-20T01:20:34.895Z,16.62
2018-01-20T01:20:58.624Z,14.20
2018-01-20T01:21:22.478Z,13.23
2018-01-20T01:21:46.367Z,13.98
2018-01-20T01:22:09.819Z,14.55
2018-01-20T01:22:33.599Z,13.25
2018-01-20T01:22:57.366Z,15.77
2018-01-20T01:23:21.423Z,16.20
2018-01-20T01:23:45.215Z,15.02
2018-01-20T01:24:08.661Z,14.87
2018-01-20T01:24:32.395Z,15.15
2018-01-20T01:24:56.145Z,15.02
2018-01-20T01:25:19.592Z,15.45
2018-01-20T01:25:43.340Z,17.25
2018-01-20T01:26:07.092Z,17.23
2018-01-20T01:26:30.563Z,16.30
2018-01-20T01:26:54.292Z,15.95
2018-01-20T01:27:18.043Z,16.83
2018-01-20T01:27:42.120Z,15.57
2018-01-20T01:28:05.908Z,14.75
2018-01-20T01:28:29.357Z,14.90
2018-01-20T01:28:53.097Z,14.40
2018-01-20T01:29:16.850Z,15.80
2018-01-20T01:29:40.919Z,14.40
2018-01-20T01:30:04.639Z,13.98
2018-01-20T01:30:28.370Z,13.75
2018-01-20T01:30:52.119Z,18.85
2018-01-20T01:31:15.879Z,18.62
2018-01-20T01:31:39.670Z,18.20
2018-01-20T01:32:03.706Z,16.92
2018-01-20T01:32:27.660Z,17.17
2018-01-20T01:32:51.688Z,15.20
2018-01-20T01:33:15.731Z,14.80
2018-01-20T01:33:39.519Z,15.23
2018-01-20T01:34:02.989Z,16.12
2018-01-20T01:34:26.724Z,14.80
2018-01-20T01:34:50.463Z,16.30
2018-01-20T01:35:14.488Z,19.15
2018-01-20T01:35:38.511Z,20.30
2018-01-20T01:36:02.268Z,18.62
2018-01-20T01:36:26.003Z,16.15
2018-01-20T01:36:49.754Z,15.13
2018-01-20T01:37:13.528Z,15.77
2018-01-20T01:37:37.283Z,15.90
2018-01-20T01:38:01.342Z,15.10
2018-01-20T01:38:25.134Z,16.50
2018-01-20T01:38:48.591Z,19.42
2018-01-20T01:39:12.356Z,20.67
2018-01-20T01:39:36.105Z,19.40
2018-01-20T01:40:00.079Z,18.52
2018-01-20T01:40:24.109Z,15.82
2018-01-20T01:40:48.122Z,15.52
2018-01-20T01:41:11.576Z,16.73
2018-01-20T01:41:35.315Z,15.68
2018-01-20T01:41:59.063Z,16.87
2018-01-20T01:42:22.843Z,18.17
2018-01-20T01:42:46.315Z,19.58
2018-01-20T01:43:10.064Z,18.40
2018-01-20T01:43:33.858Z,18.10
2018-01-20T01:43:57.916Z,17.65
2018-01-20T01:44:21.371Z,16.97
2018-01-20T01:44:45.153Z,18.08
2018-01-20T01:45:08.883Z,16.62
2018-01-20T01:45:32.715Z,17.37
2018-01-20T01:45:56.769Z,15.90
2018-01-20T01:46:20.790Z,17.95
2018-01-20T01:46:44.642Z,16.40
2018-01-20T01:47:08.680Z,15.40
2018-01-20T01:47:32.709Z,16.98
2018-01-20T01:47:56.480Z,17.58
2018-01-20T01:48:19.931Z,18.15
2018-01-20T01:48:43.731Z,15.70
2018-01-20T01:49:07.495Z,16.80
2018-01-20T01:49:31.532Z,17.77
2018-01-20T01:49:55.387Z,18.80
2018-01-20T01:50:19.475Z,19.08
2018-01-20T01:50:43.510Z,17.30
2018-01-20T01:51:07.280Z,15.07
2018-01-20T01:51:30.719Z,16.87
2018-01-20T01:51:54.116Z,20.50
2018-01-20T01:52:17.952Z,21.85
2018-01-20T01:52:41.710Z,20.65
2018-01-20T01:53:05.471Z,16.73
2018-01-20T01:53:29.210Z,15.48
2018-01-20T01:53:53.283Z,14.02
2018-01-20T01:54:16.725Z,14.10
2018-01-20T01:54:40.468Z,14.02
2018-01-20T01:55:04.200Z,16.30
2018-01-20T01:55:27.662Z,16.50
2018-01-20T01:55:51.413Z,16.90
2018-01-20T01:56:15.153Z,16.98
2018-01-20T01:56:38.934Z,18.37
2018-01-20T01:57:03.030Z,17.50
2018-01-20T01:57:27.089Z,17.48
2018-01-20T01:57:50.646Z,16.05
2018-01-20T01:58:14.376Z,17.42
2018-01-20T01:58:38.123Z,15.95
2018-01-20T01:59:01.900Z,15.50
2018-01-20T01:59:25.923Z,13.32
2018-01-20T01:59:49.675Z,15.10
2018-01-20T02:00:13.436Z,16.30
2018-01-20T02:00:37.189Z,16.73
2018-01-20T02:01:00.923Z,14.90
2018-01-20T02:01:24.676Z,14.98
2018-01-20T02:01:48.733Z,16.40
2018-01-20T02:02:12.175Z,16.37
2018-01-20T02:02:35.899Z,17.75
2018-01-20T02:02:59.631Z,14.40
2018-01-20T02:03:23.658Z,15.20
2018-01-20T02:03:47.407Z,13.18
2018-01-20T02:04:11.151Z,12.07
2018-01-20T02:04:34.923Z,11.27
2018-01-20T02:04:58.712Z,14.40
2018-01-20T02:05:22.451Z,15.95
2018-01-20T02:05:46.500Z,14.55
2018-01-20T02:06:10.235Z,15.02
2018-01-20T02:06:34.015Z,13.38
2018-01-20T02:06:57.757Z,11.70
2018-01-20T02:07:21.564Z,12.90
2018-01-20T02:07:45.291Z,12.68
2018-01-20T02:08:09.295Z,13.35
2018-01-20T02:08:32.735Z,12.80
2018-01-20T02:08:56.463Z,12.82
2018-01-20T02:09:20.219Z,13.35
2018-01-20T02:09:43.958Z,11.60
2018-01-20T02:10:07.727Z,10.73
2018-01-20T02:10:31.462Z,10.77
2018-01-20T02:10:55.199Z,10.10
2018-01-20T02:11:19.142Z,10.20
2018-01-20T02:11:42.896Z,10.07
2018-01-20T02:12:06.920Z,11.65
2018-01-20T02:12:30.980Z,12.88
2018-01-20T02:12:54.743Z,11.35
2018-01-20T02:13:18.185Z,13.73
2018-01-20T02:13:41.922Z,11.90
2018-01-20T02:14:05.726Z,11.48
2018-01-20T02:14:29.810Z,11.95
2018-01-20T02:14:53.289Z,11.53
2018-01-20T02:15:17.011Z,10.00
2018-01-20T02:15:40.726Z,10.80
2018-01-20T02:16:04.196Z,11.20
2018-01-20T02:16:27.939Z,10.30
2018-01-20T02:16:51.655Z,11.27
2018-01-20T02:17:15.427Z,11.45
2018-01-20T02:17:39.189Z,11.48
2018-01-20T02:18:03.073Z,11.80
2018-01-20T02:18:26.854Z,11.88
2018-01-20T02:18:50.762Z,11.52
2018-01-20T02:19:14.487Z,11.32
2018-01-20T02:19:38.243Z,9.40
2018-01-20T02:20:01.955Z,12.40
2018-01-20T02:20:25.355Z,12.63
2018-01-20T02:20:48.841Z,12.10
2018-01-20T02:21:12.571Z,14.60
2018-01-20T02:21:36.313Z,15.13
2018-01-20T02:22:00.080Z,17.77
2018-01-20T02:22:23.532Z,17.27
2018-01-20T02:22:47.320Z,13.75
2018-01-20T02:23:11.079Z,11.07
2018-01-20T02:23:35.089Z,11.55
2018-01-20T02:23:59.107Z,11.63
2018-01-20T02:24:22.559Z,10.67
2018-01-20T02:24:46.372Z,9.27
2018-01-20T02:25:10.129Z,8.60
2018-01-20T02:25:33.883Z,10.07
2018-01-20T02:25:57.895Z,12.05
2018-01-20T02:26:21.898Z,15.13
2018-01-20T02:26:45.907Z,12.25
2018-01-20T02:27:09.387Z,12.63
2018-01-20T02:27:33.126Z,10.82
2018-01-20T02:27:56.884Z,10.98
2018-01-20T02:28:20.643Z,10.10
2018-01-20T02:28:44.681Z,10.05
2018-01-20T02:29:08.671Z,11.00
2018-01-20T02:29:32.687Z,10.93
2018-01-20T02:29:56.181Z,9.63
2018-01-20T02:30:19.959Z,8.38
2018-01-20T02:30:43.697Z,10.73
2018-01-20T02:31:07.440Z,12.32
2018-01-20T02:31:30.901Z,11.63
2018-01-20T02:31:54.648Z,11.38
2018-01-20T02:32:18.391Z,9.80
2018-01-20T02:32:42.434Z,9.85
2018-01-20T02:33:06.460Z,10.48
2018-01-20T02:33:30.196Z,9.65
2018-01-20T02:33:53.640Z,8.75
2018-01-20T02:34:17.355Z,8.90
2018-01-20T02:34:41.159Z,8.35
2018-01-20T02:35:05.191Z,8.55
2018-01-20T02:35:29.205Z,9.00
2018-01-20T02:35:53.215Z,11.00
2018-01-20T02:36:16.976Z,11.57
2018-01-20T02:36:40.701Z,10.63
2018-01-20T02:37:04.423Z,9.75
2018-01-20T02:37:28.164Z,9.43
2018-01-20T02:37:51.921Z,10.43
2018-01-20T02:38:15.963Z,10.13
2018-01-20T02:38:40.033Z,10.52
2018-01-20T02:39:03.501Z,10.00
2018-01-20T02:39:27.235Z,9.40
2018-01-20T02:39:50.964Z,11.85
2018-01-20T02:40:14.751Z,12.73
2018-01-20T02:40:38.810Z,10.18
2018-01-20T02:41:02.827Z,8.40
2018-01-20T02:41:26.587Z,10.50
2018-01-20T02:41:50.042Z,12.32
2018-01-20T02:42:13.807Z,10.57
2018-01-20T02:42:37.592Z,8.68
2018-01-20T02:43:01.610Z,8.35
2018-01-20T02:43:25.624Z,9.10
2018-01-20T02:43:49.356Z,10.10
2018-01-20T02:44:13.104Z,10.75
2018-01-20T02:44:36.850Z,11.18
2018-01-20T02:45:00.781Z,11.18
2018-01-20T02:45:24.602Z,9.77
2018-01-20T02:45:48.481Z,9.73
2018-01-20T02:46:12.364Z,9.85
2018-01-20T02:46:36.118Z,7.28
2018-01-20T02:46:59.845Z,8.90
2018-01-20T02:47:23.590Z,9.55
2018-01-20T02:47:47.333Z,12.05
2018-01-20T02:48:11.102Z,10.18
2018-01-20T02:48:35.189Z,9.65
2018-01-20T02:48:58.923Z,10.73
2018-01-20T02:49:22.384Z,10.85
2018-01-20T02:49:46.115Z,10.80
2018-01-20T02:50:09.900Z,11.52
2018-01-20T02:50:33.986Z,11.60
2018-01-20T02:50:58.022Z,11.15
2018-01-20T02:51:21.765Z,9.88
2018-01-20T02:51:45.207Z,10.55
2018-01-20T02:52:08.943Z,11.52
2018-01-20T02:52:32.704Z,11.57
2018-01-20T02:52:56.153Z,9.77
2018-01-20T02:53:19.884Z,9.98
2018-01-20T02:53:43.697Z,10.55
2018-01-20T02:54:07.753Z,7.82
2018-01-20T02:54:31.165Z,9.05
2018-01-20T02:54:54.893Z,8.55
2018-01-20T02:55:18.616Z,12.30
2018-01-20T02:55:41.769Z,10.83
2018-01-20T02:56:05.506Z,11.23
2018-01-20T02:56:29.509Z,12.20
2018-01-20T02:56:53.615Z,11.55
2018-01-20T02:57:17.347Z,8.77
2018-01-20T02:57:40.799Z,8.52
2018-01-20T02:58:04.518Z,8.23
2018-01-20T02:58:28.314Z,9.52
2018-01-20T02:58:52.373Z,9.55
2018-01-20T02:59:16.143Z,10.02
2018-01-20T02:59:39.587Z,11.65
2018-01-20T03:00:03.314Z,12.55
2018-01-20T03:00:26.711Z,10.55
2018-01-20T03:00:50.540Z,8.73
2018-01-20T03:01:14.268Z,7.45
2018-01-20T03:01:38.050Z,8.20
2018-01-20T03:02:02.066Z,9.05
2018-01-20T03:02:26.096Z,10.43
2018-01-20T03:02:49.838Z,10.18
2018-01-20T03:03:13.582Z,10.13
2018-01-20T03:03:37.317Z,9.32
2018-01-20T03:04:01.056Z,10.27
2018-01-20T03:04:24.819Z,12.48
2018-01-20T03:04:48.824Z,9.85
2018-01-20T03:05:12.862Z,8.60
2018-01-20T03:05:36.872Z,9.20
2018-01-20T03:06:00.636Z,9.50
2018-01-20T03:06:24.079Z,11.98
2018-01-20T03:06:47.830Z,12.43
2018-01-20T03:07:11.573Z,11.30
2018-01-20T03:07:35.014Z,9.43
2018-01-20T03:07:58.730Z,9.52
2018-01-20T03:08:22.501Z,9.68
2018-01-20T03:08:45.951Z,10.63
2018-01-20T03:09:09.679Z,12.32
2018-01-20T03:09:33.475Z,12.85
2018-01-20T03:09:57.424Z,10.75
2018-01-20T03:10:21.459Z,9.07
2018-01-20T03:10:45.275Z,8.20
2018-01-20T03:11:08.801Z,9.40
2018-01-20T03:11:32.541Z,10.10
2018-01-20T03:11:56.274Z,11.82
2018-01-20T03:12:20.326Z,10.02
2018-01-20T03:12:44.066Z,10.15
2018-01-20T03:13:07.787Z,7.40
2018-01-20T03:13:31.523Z,7.12
2018-01-20T03:13:55.293Z,8.02
2018-01-20T03:14:19.029Z,9.93
2018-01-20T03:14:43.100Z,9.85
2018-01-20T03:15:07.122Z,8.50
2018-01-20T03:15:30.884Z,9.45
2018-01-20T03:15:54.326Z,10.95
2018-01-20T03:16:18.084Z,9.82
2018-01-20T03:16:41.811Z,8.68
2018-01-20T03:17:05.857Z,10.50
2018-01-20T03:17:29.884Z,10.00
2018-01-20T03:17:53.893Z,11.12
2018-01-20T03:18:17.621Z,13.93
2018-01-20T03:18:41.355Z,14.68
2018-01-20T03:19:05.085Z,11.20
2018-01-20T03:19:28.895Z,7.78
2018-01-20T03:19:52.628Z,7.80
2018-01-20T03:20:16.639Z,10.35
2018-01-20T03:20:40.651Z,13.13
2018-01-20T03:21:04.396Z,13.10
2018-01-20T03:21:28.160Z,10.57
2018-01-20T03:21:51.893Z,9.70
2018-01-20T03:22:15.629Z,9.80
2018-01-20T03:22:39.356Z,9.63
2018-01-20T03:23:03.379Z,9.88
2018-01-20T03:23:27.383Z,13.00
2018-01-20T03:23:51.414Z,12.15
2018-01-20T03:24:15.198Z,11.55
2018-01-20T03:24:39.118Z,14.52
2018-01-20T03:25:02.582Z,15.07
2018-01-20T03:25:26.303Z,14.32
2018-01-20T03:25:50.032Z,13.65
2018-01-20T03:26:13.474Z,12.73
2018-01-20T03:26:37.220Z,11.48
2018-01-20T03:27:00.950Z,11.65
2018-01-20T03:27:24.392Z,11.80
2018-01-20T03:27:48.132Z,11.18
2018-01-20T03:28:11.877Z,10.93
2018-01-20T03:28:35.578Z,11.07
2018-01-20T03:28:59.362Z,11.40
2018-01-20T03:29:23.119Z,11.57
2018-01-20T03:29:46.848Z,13.13
2018-01-20T03:30:10.340Z,11.63
2018-01-20T03:30:34.060Z,11.02
2018-01-20T03:30:57.916Z,10.20
2018-01-20T03:31:21.661Z,13.65
2018-01-20T03:31:45.692Z,16.23
2018-01-20T03:32:09.142Z,14.87
2018-01-20T03:32:32.869Z,19.05
2018-01-20T03:32:56.598Z,17.15
2018-01-20T03:33:20.036Z,12.97
2018-01-20T03:33:43.754Z,11.63
2018-01-20T03:34:07.490Z,13.85
2018-01-20T03:34:31.498Z,13.02
2018-01-20T03:34:55.299Z,12.57
2018-01-20T03:35:18.727Z,12.73
2018-01-20T03:35:42.484Z,13.43
2018-01-20T03:36:06.221Z,11.35
2018-01-20T03:36:30.231Z,11.15
2018-01-20T03:36:54.280Z,10.55
2018-01-20T03:37:18.016Z,9.55
2018-01-20T03:37:41.452Z,10.18
2018-01-20T03:38:05.171Z,12.55
2018-01-20T03:38:28.914Z,14.10
2018-01-20T03:38:52.639Z,14.68
2018-01-20T03:39:16.415Z,12.68
2018-01-20T03:39:40.148Z,10.93
2018-01-20T03:40:03.531Z,11.75
2018-01-20T03:40:27.263Z,11.63
2018-01-20T03:40:51.015Z,11.73
2018-01-20T03:41:14.755Z,12.63
2018-01-20T03:41:38.815Z,15.57
2018-01-20T03:42:02.856Z,14.13
2018-01-20T03:42:26.662Z,16.60
2018-01-20T03:42:50.811Z,13.62
2018-01-20T03:43:14.538Z,14.07
2018-01-20T03:43:38.289Z,14.65
2018-01-20T03:44:02.019Z,11.85
2018-01-20T03:44:25.773Z,10.10
2018-01-20T03:44:49.497Z,9.80
2018-01-20T03:45:13.502Z,11.23
2018-01-20T03:45:37.503Z,15.07
2018-01-20T03:46:01.256Z,16.40
2018-01-20T03:46:24.982Z,13.87
2018-01-20T03:46:48.741Z,13.98
2018-01-20T03:47:12.495Z,14.43
2018-01-20T03:47:36.240Z,15.68
2018-01-20T03:48:00.260Z,14.05
2018-01-20T03:48:24.271Z,13.10
2018-01-20T03:48:48.027Z,13.35
2018-01-20T03:49:11.759Z,11.40
2018-01-20T03:49:35.501Z,11.63
2018-01-20T03:49:59.227Z,12.50
2018-01-20T03:50:22.960Z,15.23
2018-01-20T03:50:46.961Z,14.30
2018-01-20T03:51:10.975Z,17.40
2018-01-20T03:51:35.013Z,18.45
2018-01-20T03:51:58.756Z,16.80
2018-01-20T03:52:22.226Z,12.37
2018-01-20T03:52:45.797Z,11.68
2018-01-20T03:53:09.698Z,13.62
2018-01-20T03:53:33.151Z,15.55
2018-01-20T03:53:56.944Z,16.55
2018-01-20T03:54:20.800Z,14.55
2018-01-20T03:54:44.532Z,13.60
2018-01-20T03:55:07.975Z,12.43
2018-01-20T03:55:31.717Z,12.90
2018-01-20T03:55:55.094Z,11.25
2018-01-20T03:56:18.831Z,10.18
2018-01-20T03:56:42.605Z,10.68
2018-01-20T03:57:06.401Z,14.55
2018-01-20T03:57:30.548Z,15.25
2018-01-20T03:57:54.283Z,13.65
2018-01-20T03:58:17.721Z,13.07
2018-01-20T03:58:41.455Z,14.02
2018-01-20T03:59:05.210Z,17.65
2018-01-20T03:59:29.231Z,16.98
2018-01-20T03:59:52.884Z,15.35
2018-01-20T04:00:16.622Z,14.98
2018-01-20T04:00:40.036Z,15.13
2018-01-20T04:01:04.053Z,14.25
2018-01-20T04:01:28.060Z,15.60
2018-01-20T04:01:52.100Z,14.70
2018-01-20T04:02:15.850Z,15.43
2018-01-20T04:02:39.329Z,13.75
2018-01-20T04:03:03.065Z,12.37
2018-01-20T04:03:26.799Z,12.27
2018-01-20T04:03:50.829Z,12.37
2018-01-20T04:04:14.846Z,16.92
2018-01-20T04:04:38.583Z,17.90
2018-01-20T04:05:02.032Z,17.12
2018-01-20T04:05:25.768Z,17.92
2018-01-20T04:05:49.513Z,17.95
2018-01-20T04:06:12.961Z,17.80
2018-01-20T04:06:36.682Z,14.95
2018-01-20T04:07:00.455Z,15.48
2018-01-20T04:07:23.918Z,13.65
2018-01-20T04:07:47.700Z,13.32
2018-01-20T04:08:11.451Z,14.13
2018-01-20T04:08:35.451Z,15.82
2018-01-20T04:08:59.207Z,17.55
2018-01-20T04:09:22.727Z,20.85
2018-01-20T04:09:46.464Z,22.08
2018-01-20T04:10:10.233Z,20.80
2018-01-20T04:10:34.261Z,18.92
2018-01-20T04:10:57.707Z,15.27
2018-01-20T04:11:21.498Z,11.77
2018-01-20T04:11:45.242Z,11.05
2018-01-20T04:12:08.990Z,14.45
2018-01-20T04:12:32.435Z,15.13
2018-01-20T04:12:55.847Z,16.77
2018-01-20T04:13:19.584Z,14.57
2018-01-20T04:13:43.340Z,13.82
2018-01-20T04:14:07.115Z,12.63
2018-01-20T04:14:30.883Z,14.82
2018-01-20T04:14:54.319Z,14.97
2018-01-20T04:15:18.039Z,12.60
2018-01-20T04:15:41.771Z,14.20
2018-01-20T04:16:05.224Z,14.60
2018-01-20T04:16:29.102Z,15.02
2018-01-20T04:16:52.827Z,13.65
2018-01-20T04:17:16.557Z,13.27
2018-01-20T04:17:40.559Z,15.52
2018-01-20T04:18:04.583Z,16.33
2018-01-20T04:18:28.367Z,15.70
2018-01-20T04:18:52.387Z,12.27
2018-01-20T04:19:16.429Z,12.35
2018-01-20T04:19:40.456Z,13.90
2018-01-20T04:20:03.836Z,16.73
2018-01-20T04:20:27.562Z,16.48
2018-01-20T04:20:51.292Z,12.30
2018-01-20T04:21:15.332Z,13.00
2018-01-20T04:21:39.068Z,12.70
2018-01-20T04:22:02.612Z,13.68
2018-01-20T04:22:26.345Z,15.60
2018-01-20T04:22:50.085Z,15.20
2018-01-20T04:23:14.225Z,14.05
2018-01-20T04:23:37.971Z,12.40
2018-01-20T04:24:01.971Z,13.00
2018-01-20T04:24:25.992Z,16.48
2018-01-20T04:24:50.003Z,17.25
2018-01-20T04:25:13.743Z,14.90
2018-01-20T04:25:37.549Z,15.38
2018-01-20T04:26:01.276Z,17.10
2018-01-20T04:26:25.028Z,15.48
2018-01-20T04:26:48.780Z,13.73
2018-01-20T04:27:12.836Z,17.87
2018-01-20T04:27:36.618Z,18.20
2018-01-20T04:28:00.056Z,16.23
2018-01-20T04:28:23.810Z,16.55
2018-01-20T04:28:47.588Z,16.42
2018-01-20T04:29:11.720Z,17.55
2018-01-20T04:29:35.456Z,16.35
2018-01-20T04:29:58.911Z,17.52
2018-01-20T04:30:22.649Z,19.25
2018-01-20T04:30:46.392Z,19.35
2018-01-20T04:31:10.400Z,20.52
2018-01-20T04:31:34.447Z,15.77
2018-01-20T04:31:57.885Z,16.63
2018-01-20T04:32:21.655Z,16.65
2018-01-20T04:32:45.377Z,16.27
2018-01-20T04:33:09.175Z,17.45
2018-01-20T04:33:32.755Z,14.45
2018-01-20T04:33:56.475Z,17.40
2018-01-20T04:34:20.227Z,15.70
2018-01-20T04:34:44.147Z,12.00
2018-01-20T04:35:08.192Z,10.30
2018-01-20T04:35:31.942Z,11.63
2018-01-20T04:35:55.463Z,13.40
2018-01-20T04:36:19.189Z,13.85
2018-01-20T04:36:42.953Z,16.48
2018-01-20T04:37:06.967Z,15.00
2018-01-20T04:37:30.982Z,16.67
2018-01-20T04:37:54.707Z,16.20
2018-01-20T04:38:18.475Z,15.50
2018-01-20T04:38:42.331Z,12.65
2018-01-20T04:39:05.759Z,12.65
2018-01-20T04:39:29.781Z,13.98
2018-01-20T04:39:53.525Z,14.65
2018-01-20T04:40:17.026Z,12.70
2018-01-20T04:40:40.751Z,12.77
2018-01-20T04:41:04.573Z,15.40
2018-01-20T04:41:28.623Z,17.08
2018-01-20T04:41:52.415Z,16.87
2018-01-20T04:42:16.429Z,20.00
2018-01-20T04:42:40.448Z,19.15
2018-01-20T04:43:04.492Z,15.23
2018-01-20T04:43:28.236Z,13.45
2018-01-20T04:43:51.699Z,15.20
2018-01-20T04:44:15.441Z,15.75
2018-01-20T04:44:39.171Z,15.70
2018-01-20T04:45:02.619Z,14.35
2018-01-20T04:45:26.348Z,14.65
2018-01-20T04:45:49.755Z,14.43
2018-01-20T04:46:14.030Z,14.55
2018-01-20T04:46:37.527Z,17.83
2018-01-20T04:47:01.268Z,16.40
2018-01-20T04:47:25.060Z,15.40
2018-01-20T04:47:49.065Z,13.75
2018-01-20T04:48:12.828Z,12.50
2018-01-20T04:48:36.397Z,14.00
2018-01-20T04:49:00.228Z,15.07
2018-01-20T04:49:23.992Z,17.37
2018-01-20T04:49:47.739Z,15.98
2018-01-20T04:50:11.291Z,14.65
2018-01-20T04:50:35.019Z,13.55
2018-01-20T04:50:58.770Z,12.77
2018-01-20T04:51:22.803Z,13.05
2018-01-20T04:51:46.587Z,12.60
2018-01-20T04:52:10.033Z,14.00
2018-01-20T04:52:33.833Z,15.35
2018-01-20T04:52:57.589Z,13.45
2018-01-20T04:53:21.609Z,13.68
2018-01-20T04:53:45.345Z,15.95
2018-01-20T04:54:08.557Z,16.90
2018-01-20T04:54:32.577Z,20.17
2018-01-20T04:54:56.307Z,17.77
2018-01-20T04:55:19.751Z,14.27
2018-01-20T04:55:43.482Z,14.55
2018-01-20T04:56:07.064Z,14.43
2018-01-20T04:56:30.501Z,18.30
2018-01-20T04:56:54.225Z,18.00
2018-01-20T04:57:18.233Z,20.62
2018-01-20T04:57:41.671Z,19.30
2018-01-20T04:58:05.408Z,19.92
2018-01-20T04:58:29.131Z,17.15
2018-01-20T04:58:52.581Z,17.30
2018-01-20T04:59:16.334Z,15.80
2018-01-20T04:59:40.066Z,17.73
2018-01-20T05:00:03.470Z,18.92
2018-01-20T05:00:27.195Z,20.42
2018-01-20T05:00:50.926Z,14.98
2018-01-20T05:01:14.411Z,13.30
2018-01-20T05:01:38.161Z,12.45
2018-01-20T05:02:01.910Z,10.65
2018-01-20T05:02:25.672Z,12.95
2018-01-20T05:02:49.717Z,15.15
2018-01-20T05:03:13.715Z,18.58
2018-01-20T05:03:37.731Z,19.17
2018-01-20T05:04:01.471Z,18.62
2018-01-20T05:04:25.071Z,15.15
2018-01-20T05:04:48.828Z,14.70
2018-01-20T05:05:12.581Z,13.52
2018-01-20T05:05:36.085Z,13.47
2018-01-20T05:06:00.009Z,11.83
2018-01-20T05:06:23.772Z,13.18
2018-01-20T05:06:47.508Z,15.73
2018-01-20T05:07:11.394Z,16.73
2018-01-20T05:07:35.407Z,14.65
2018-01-20T05:07:59.148Z,12.63
2018-01-20T05:08:22.888Z,12.73
2018-01-20T05:08:46.628Z,14.95
2018-01-20T05:09:10.355Z,17.08